TimeEDT,TemperatureF,Dew PointF,Humidity,Sea Level PressureIn,VisibilityMPH,Wind Direction,Wind SpeedMPH,Gust SpeedMPH,PrecipitationIn,Events,Conditions,WindDirDegrees,DateUTC
12:53 AM,63.0,51.1,65,29.89,10.0,WSW,4.6,-,N/A,,Clear,250,2012-06-27 04:53:00
1:53 AM,64.0,50.0,60,29.88,10.0,West,4.6,-,N/A,,Clear,280,2012-06-27 05:53:00
2:53 AM,61.0,51.1,70,29.88,10.0,WSW,6.9,-,N/A,,Clear,250,2012-06-27 06:53:00
3:53 AM,61.0,50.0,67,29.88,10.0,West,3.5,-,N/A,,Clear,260,2012-06-27 07:53:00
4:53 AM,63.0,48.9,60,29.89,10.0,West,5.8,-,N/A,,Clear,260,2012-06-27 08:53:00
5:53 AM,62.1,48.9,62,29.90,10.0,West,4.6,-,N/A,,Clear,260,2012-06-27 09:53:00
6:53 AM,66.0,48.0,52,29.92,10.0,WSW,4.6,-,N/A,,Clear,240,2012-06-27 10:53:00
7:53 AM,70.0,51.1,51,29.95,10.0,Variable,5.8,-,N/A,,Clear,0,2012-06-27 11:53:00
8:53 AM,75.0,50.0,41,29.97,10.0,Variable,3.5,-,N/A,,Clear,0,2012-06-27 12:53:00
9:53 AM,77.0,51.1,40,29.97,10.0,NW,8.1,-,N/A,,Clear,320,2012-06-27 13:53:00
10:53 AM,80.1,52.0,38,29.98,10.0,Variable,6.9,-,N/A,,Clear,0,2012-06-27 14:53:00
11:53 AM,82.9,51.1,33,29.97,10.0,North,8.1,-,N/A,,Clear,350,2012-06-27 15:53:00
12:53 PM,84.0,51.1,32,29.96,10.0,Variable,5.8,-,N/A,,Clear,0,2012-06-27 16:53:00
1:53 PM,86.0,51.1,30,29.94,10.0,North,11.5,-,N/A,,Clear,360,2012-06-27 17:53:00
2:53 PM,87.1,48.9,27,29.92,10.0,North,11.5,-,N/A,,Clear,360,2012-06-27 18:53:00
3:53 PM,88.0,48.9,26,29.91,10.0,Variable,5.8,-,N/A,,Clear,0,2012-06-27 19:53:00
4:53 PM,89.1,50.0,26,29.90,10.0,NW,5.8,-,N/A,,Clear,310,2012-06-27 20:53:00
5:53 PM,89.1,50.0,26,29.90,10.0,Calm,Calm,-,N/A,,Clear,0,2012-06-27 21:53:00
6:53 PM,88.0,55.0,32,29.89,10.0,Calm,Calm,-,N/A,,Clear,0,2012-06-27 22:53:00
7:53 PM,86.0,53.1,32,29.89,10.0,Calm,Calm,-,N/A,,Clear,0,2012-06-27 23:53:00
8:53 PM,82.9,51.1,33,29.89,10.0,Calm,Calm,-,N/A,,Clear,0,2012-06-28 00:53:00
9:53 PM,75.9,57.0,52,29.92,10.0,Calm,Calm,-,N/A,,Clear,0,2012-06-28 01:53:00
10:53 PM,73.0,57.9,59,29.93,10.0,Calm,Calm,-,N/A,,Clear,0,2012-06-28 02:53:00
11:53 PM,71.1,59.0,66,29.93,10.0,Calm,Calm,-,N/A,,Clear,0,2012-06-28 03:53:00